createdAt,value
2023-04-25T00:01:25.252Z,1.00
2023-04-25T00:03:53.821Z,1.10
2023-04-25T00:06:22.530Z,1.10
2023-04-25T00:08:50.376Z,0.97
2023-04-25T00:11:18.270Z,1.10
2023-04-25T00:13:47.957Z,1.20
2023-04-25T00:16:16.555Z,1.40
2023-04-25T00:18:44.780Z,1.50
2023-04-25T00:21:12.638Z,1.57
2023-04-25T00:23:40.640Z,1.23
2023-04-25T00:26:08.682Z,1.07
2023-04-25T00:28:36.564Z,1.00
2023-04-25T00:31:05.986Z,1.07
2023-04-25T00:33:33.869Z,1.13
2023-04-25T00:36:01.863Z,1.03
2023-04-25T00:38:29.729Z,1.10
2023-04-25T00:40:58.552Z,1.30
2023-04-25T00:43:28.075Z,1.20
2023-04-25T00:45:58.299Z,1.10
2023-04-25T00:48:27.486Z,1.00
2023-04-25T00:50:58.078Z,1.40
2023-04-25T00:53:28.955Z,1.00
2023-04-25T00:55:57.119Z,1.23
2023-04-25T00:58:25.336Z,1.17
2023-04-25T01:00:53.964Z,1.30
2023-04-25T01:03:22.559Z,1.10
2023-04-25T01:05:52.873Z,1.10
2023-04-25T01:08:23.369Z,1.10
2023-04-25T01:10:51.203Z,1.00
2023-04-25T01:13:19.462Z,1.10
2023-04-25T01:15:47.480Z,1.20
2023-04-25T01:18:15.359Z,1.20
2023-04-25T01:20:44.210Z,1.40
2023-04-25T01:23:13.802Z,1.10
2023-04-25T01:25:42.017Z,1.23
2023-04-25T01:28:10.449Z,1.00
2023-04-25T01:30:38.600Z,1.10
2023-04-25T01:33:07.141Z,1.77
2023-04-25T01:35:35.086Z,1.03
2023-04-25T01:38:04.277Z,1.17
2023-04-25T01:40:35.379Z,1.40
2023-04-25T01:43:03.612Z,1.20
2023-04-25T01:45:31.537Z,1.20
2023-04-25T01:48:00.548Z,1.10
2023-04-25T01:50:28.497Z,1.10
2023-04-25T01:52:57.503Z,1.03
2023-04-25T01:55:25.460Z,1.30
2023-04-25T01:57:54.716Z,1.10
2023-04-25T02:00:22.967Z,1.00
2023-04-25T02:02:52.154Z,0.93
2023-04-25T02:05:20.219Z,1.20
2023-04-25T02:07:49.049Z,1.23
2023-04-25T02:10:16.975Z,0.97
2023-04-25T02:12:44.984Z,1.13
2023-04-25T02:15:14.351Z,1.27
2023-04-25T02:17:42.253Z,1.13
2023-04-25T02:20:11.099Z,1.10
2023-04-25T02:22:39.035Z,1.30
2023-04-25T02:25:08.007Z,1.10
2023-04-25T02:27:35.908Z,1.20
2023-04-25T02:30:05.706Z,1.43
2023-04-25T02:32:35.324Z,1.10
2023-04-25T02:35:04.736Z,1.30
2023-04-25T02:37:32.754Z,1.27
2023-04-25T02:40:00.696Z,1.10
2023-04-25T02:42:28.629Z,1.20
2023-04-25T02:44:56.484Z,1.30
2023-04-25T02:47:24.469Z,1.40
2023-04-25T02:49:53.741Z,1.20
2023-04-25T02:52:22.219Z,1.10
2023-04-25T02:54:50.201Z,1.40
2023-04-25T02:57:18.149Z,1.10
2023-04-25T02:59:46.064Z,1.80
2023-04-25T03:02:13.977Z,1.20
2023-04-25T03:04:42.025Z,1.17
2023-04-25T03:07:11.869Z,1.50
2023-04-25T03:09:39.716Z,1.13
2023-04-25T03:12:08.068Z,1.27
2023-04-25T03:14:36.001Z,1.03
2023-04-25T03:17:03.973Z,1.47
2023-04-25T03:19:31.916Z,1.20
2023-04-25T03:21:59.789Z,1.10
2023-04-25T03:24:29.299Z,1.10
2023-04-25T03:26:57.218Z,1.13
2023-04-25T03:29:27.390Z,1.20
2023-04-25T03:31:55.266Z,1.10
2023-04-25T03:34:23.417Z,1.10
2023-04-25T03:36:51.358Z,1.00
2023-04-25T03:39:19.298Z,1.07
2023-04-25T03:41:48.541Z,1.10
2023-04-25T03:44:16.636Z,1.20
2023-04-25T03:46:44.468Z,1.20
2023-04-25T03:49:12.432Z,1.40
2023-04-25T03:51:40.401Z,1.13
2023-04-25T03:54:08.304Z,1.00
2023-04-25T03:56:36.160Z,1.10
2023-04-25T03:59:05.419Z,1.27
2023-04-25T04:01:33.287Z,1.03
2023-04-25T04:04:01.396Z,1.20
2023-04-25T04:06:29.618Z,1.40
2023-04-25T04:08:57.683Z,1.20
2023-04-25T04:11:25.566Z,1.20
2023-04-25T04:13:53.574Z,1.20
2023-04-25T04:16:22.885Z,1.23
2023-04-25T04:18:50.910Z,1.00
2023-04-25T04:21:18.761Z,1.30
2023-04-25T04:23:47.582Z,1.50
2023-04-25T04:26:16.339Z,1.40
2023-04-25T04:28:44.957Z,0.90
2023-04-25T04:31:12.921Z,0.90
2023-04-25T04:33:42.181Z,1.50
2023-04-25T04:36:10.769Z,1.10
2023-04-25T04:38:40.132Z,1.30
2023-04-25T04:41:10.101Z,1.20
2023-04-25T04:43:38.017Z,1.20
2023-04-25T04:46:06.173Z,1.20
2023-04-25T04:48:35.136Z,1.50
2023-04-25T04:51:04.580Z,1.20
2023-04-25T04:53:32.489Z,1.50
2023-04-25T04:56:00.945Z,1.30
2023-04-25T04:58:30.152Z,1.37
2023-04-25T05:00:58.028Z,1.07
2023-04-25T05:03:26.077Z,1.27
2023-04-25T05:05:53.994Z,1.13
2023-04-25T05:08:23.228Z,1.27
2023-04-25T05:10:51.153Z,1.23
2023-04-25T05:13:19.204Z,1.00
2023-04-25T05:15:47.057Z,1.40
2023-04-25T05:18:15.071Z,1.40
2023-04-25T05:20:43.145Z,1.33
2023-04-25T05:23:11.059Z,1.07
2023-04-25T05:25:40.267Z,1.20
2023-04-25T05:28:08.145Z,1.40
2023-04-25T05:30:36.372Z,1.17
2023-04-25T05:33:04.334Z,1.20
2023-04-25T05:35:32.429Z,1.00
2023-04-25T05:38:00.351Z,1.20
2023-04-25T05:40:28.309Z,1.30
2023-04-25T05:42:57.504Z,1.30
2023-04-25T05:45:25.533Z,1.00
2023-04-25T05:47:53.472Z,1.47
2023-04-25T05:50:21.460Z,1.27
2023-04-25T05:52:49.315Z,1.20
2023-04-25T05:55:17.236Z,1.30
2023-04-25T05:57:46.221Z,1.20
2023-04-25T06:00:17.125Z,1.20
2023-04-25T06:02:45.289Z,1.20
2023-04-25T06:05:13.760Z,0.80
2023-04-25T06:07:41.793Z,1.30
2023-04-25T06:10:10.695Z,1.50
2023-04-25T06:12:39.370Z,1.10
2023-04-25T06:15:20.215Z,1.13
2023-04-25T06:17:57.261Z,1.07
2023-04-25T06:20:25.616Z,1.17
2023-04-25T06:22:53.969Z,1.33
2023-04-25T06:25:22.317Z,1.50
2023-04-25T06:27:50.505Z,1.43
2023-04-25T06:30:19.329Z,1.30
2023-04-25T06:32:47.314Z,1.20
2023-04-25T06:35:16.621Z,1.13
2023-04-25T06:37:44.485Z,1.10
2023-04-25T06:40:12.915Z,1.40
2023-04-25T06:42:40.884Z,1.20
2023-04-25T06:45:09.784Z,1.37
2023-04-25T06:47:37.782Z,1.10
2023-04-25T06:50:06.872Z,1.80
2023-04-25T06:52:36.080Z,1.20
2023-04-25T06:55:03.984Z,1.30
2023-04-25T06:57:31.824Z,1.40
2023-04-25T07:00:01.533Z,1.03
2023-04-25T07:02:30.379Z,1.03
2023-04-25T07:05:00.784Z,1.40
2023-04-25T07:07:28.732Z,1.57
2023-04-25T07:09:57.968Z,1.47
2023-04-25T07:12:25.796Z,1.50
2023-04-25T07:14:53.656Z,1.10
2023-04-25T07:17:21.502Z,1.10
2023-04-25T07:19:49.366Z,1.13
2023-04-25T07:22:17.218Z,0.90
2023-04-25T07:24:48.340Z,1.20
2023-04-25T07:27:17.567Z,1.30
2023-04-25T07:29:45.401Z,1.47
2023-04-25T07:32:14.599Z,1.30
2023-04-25T07:34:42.590Z,1.30
2023-04-25T07:37:10.621Z,1.17
2023-04-25T07:39:39.073Z,1.10
2023-04-25T07:42:08.960Z,1.43
2023-04-25T07:44:39.720Z,1.23
2023-04-25T07:47:08.986Z,1.20
2023-04-25T07:49:37.374Z,1.33
2023-04-25T07:52:07.013Z,0.90
2023-04-25T07:54:35.013Z,1.00
2023-04-25T07:57:03.330Z,1.30
2023-04-25T07:59:31.506Z,1.50
2023-04-25T08:02:00.774Z,1.20
2023-04-25T08:04:28.834Z,1.03
2023-04-25T08:06:56.784Z,1.23
2023-04-25T08:09:24.837Z,1.30
2023-04-25T08:11:52.711Z,1.43
2023-04-25T08:14:20.787Z,1.20
2023-04-25T08:16:48.762Z,1.10
2023-04-25T08:19:18.196Z,1.50
2023-04-25T08:21:46.149Z,1.20
2023-04-25T08:24:14.028Z,1.40
2023-04-25T08:26:42.214Z,1.40
2023-04-25T08:29:10.108Z,1.30
2023-04-25T08:31:39.137Z,1.50
2023-04-25T08:34:07.067Z,1.50
2023-04-25T08:36:39.693Z,1.23
2023-04-25T08:39:08.358Z,1.30
2023-04-25T08:41:38.407Z,1.10
2023-04-25T08:44:08.918Z,1.70
2023-04-25T08:46:37.082Z,1.40
2023-04-25T08:49:04.970Z,1.10
2023-04-25T08:51:34.161Z,1.33
2023-04-25T08:54:34.178Z,1.27
2023-04-25T08:57:02.800Z,0.97
2023-04-25T08:59:31.858Z,1.47
2023-04-25T09:01:59.948Z,1.63
2023-04-25T09:04:27.891Z,1.07
2023-04-25T09:06:55.826Z,1.30
2023-04-25T09:09:25.772Z,1.33
2023-04-25T09:11:56.893Z,1.10
2023-04-25T09:14:26.747Z,1.30
2023-04-25T09:17:02.806Z,1.53
2023-04-25T09:19:40.144Z,1.50
2023-04-25T09:22:09.702Z,1.17
2023-04-25T09:24:42.461Z,1.40
2023-04-25T09:27:12.787Z,1.33
2023-04-25T09:29:41.944Z,1.40
2023-04-25T09:32:18.078Z,1.13
2023-04-25T09:34:49.187Z,1.23
2023-04-25T09:37:21.478Z,1.10
2023-04-25T09:39:51.910Z,1.37
2023-04-25T09:42:20.028Z,1.30
2023-04-25T09:44:48.813Z,1.13
2023-04-25T09:47:18.719Z,1.20
2023-04-25T09:49:46.670Z,1.53
2023-04-25T09:52:19.224Z,2.13
2023-04-25T09:54:47.458Z,1.30
2023-04-25T09:57:18.549Z,1.40
2023-04-25T09:59:48.358Z,1.60
2023-04-25T10:02:18.335Z,1.10
2023-04-25T10:04:49.642Z,1.53
2023-04-25T10:07:19.482Z,1.10
2023-04-25T10:09:50.740Z,1.10
2023-04-25T10:12:20.874Z,1.20
2023-04-25T10:14:49.645Z,1.30
2023-04-25T10:17:17.616Z,1.20
2023-04-25T10:19:45.601Z,1.27
2023-04-25T10:22:18.951Z,1.40
2023-04-25T10:24:48.346Z,1.43
2023-04-25T10:27:16.832Z,1.50
2023-04-25T10:29:46.063Z,1.23
2023-04-25T10:32:14.090Z,2.03
2023-04-25T10:34:43.843Z,1.13
2023-04-25T10:37:12.448Z,1.50
2023-04-25T10:39:42.163Z,1.50
2023-04-25T10:42:10.373Z,1.30
2023-04-25T10:44:40.052Z,1.37
2023-04-25T10:47:10.911Z,1.10
2023-04-25T10:49:40.269Z,1.40
2023-04-25T10:52:20.300Z,1.40
2023-04-25T10:54:54.693Z,1.47
2023-04-25T10:57:32.443Z,1.17
2023-04-25T11:00:07.737Z,1.30
2023-04-25T11:02:44.146Z,1.17
2023-04-25T11:05:12.401Z,1.43
2023-04-25T11:07:52.889Z,1.30
2023-04-25T11:10:28.838Z,1.33
2023-04-25T11:12:56.771Z,1.40
2023-04-25T11:15:25.111Z,1.30
2023-04-25T11:17:55.526Z,1.27
2023-04-25T11:20:24.353Z,1.27
2023-04-25T11:22:52.861Z,1.50
2023-04-25T11:25:21.961Z,1.17
2023-04-25T11:27:53.249Z,1.37
2023-04-25T11:30:22.607Z,1.70
2023-04-25T11:32:51.019Z,1.30
2023-04-25T11:35:20.879Z,1.03
2023-04-25T11:37:49.242Z,1.27
2023-04-25T11:40:17.136Z,1.27
2023-04-25T11:42:46.905Z,1.20
2023-04-25T11:45:15.876Z,1.33
2023-04-25T11:47:43.967Z,1.33
2023-04-25T11:50:12.520Z,1.07
2023-04-25T11:52:44.001Z,1.40
2023-04-25T11:55:15.385Z,1.10
2023-04-25T11:57:44.142Z,1.10
2023-04-25T12:00:18.448Z,1.60
2023-04-25T12:02:48.222Z,1.20
2023-04-25T12:05:30.936Z,1.17
2023-04-25T12:08:11.768Z,1.10
2023-04-25T12:10:40.428Z,1.40
2023-04-25T12:13:21.549Z,1.20
2023-04-25T12:15:49.927Z,1.00
2023-04-25T12:18:21.439Z,1.00
2023-04-25T12:20:49.368Z,1.10
2023-04-25T12:23:18.592Z,1.30
2023-04-25T12:25:48.114Z,1.20
2023-04-25T12:28:20.539Z,1.27
2023-04-25T12:30:56.252Z,1.10
2023-04-25T12:33:24.265Z,1.10
2023-04-25T12:35:52.668Z,1.13
2023-04-25T12:38:26.543Z,1.33
2023-04-25T12:40:54.651Z,1.10
2023-04-25T12:43:22.798Z,1.20
2023-04-25T12:45:52.129Z,1.20
2023-04-25T12:48:20.586Z,1.30
2023-04-25T12:50:50.061Z,1.30
2023-04-25T12:53:18.356Z,1.50
2023-04-25T12:55:48.076Z,1.30
2023-04-25T12:58:16.141Z,1.47
2023-04-25T13:00:44.099Z,1.00
2023-04-25T13:03:13.454Z,1.17
2023-04-25T13:05:42.335Z,1.10
2023-04-25T13:08:10.716Z,1.30
2023-04-25T13:10:40.101Z,1.20
2023-04-25T13:13:09.521Z,1.27
2023-04-25T13:15:37.536Z,1.10
2023-04-25T13:18:06.507Z,1.23
2023-04-25T13:20:34.588Z,1.10
2023-04-25T13:23:02.951Z,1.47
2023-04-25T13:25:31.077Z,1.30
2023-04-25T13:27:59.156Z,1.53
2023-04-25T13:30:28.600Z,1.33
2023-04-25T13:32:57.950Z,1.00
2023-04-25T13:35:26.720Z,1.30
2023-04-25T13:37:54.738Z,1.40
2023-04-25T13:40:25.146Z,1.37
2023-04-25T13:42:53.430Z,1.30
2023-04-25T13:45:21.809Z,1.23
2023-04-25T13:47:51.314Z,1.30
2023-04-25T13:50:19.304Z,1.10
2023-04-25T13:52:47.191Z,1.67
2023-04-25T13:55:15.114Z,1.27
2023-04-25T13:57:42.965Z,1.00
2023-04-25T14:00:12.158Z,1.40
2023-04-25T14:02:40.803Z,1.30
2023-04-25T14:05:11.158Z,1.43
2023-04-25T14:07:39.615Z,1.30
2023-04-25T14:10:08.574Z,2.27
2023-04-25T14:12:36.516Z,1.20
2023-04-25T14:15:05.517Z,1.43
2023-04-25T14:17:33.392Z,1.10
2023-04-25T14:20:01.326Z,1.20
2023-04-25T14:22:30.506Z,1.60
2023-04-25T14:24:59.037Z,1.20
2023-04-25T14:27:29.169Z,1.37
2023-04-25T14:29:57.654Z,1.40
2023-04-25T14:32:25.527Z,1.20
2023-04-25T14:34:53.456Z,1.27
2023-04-25T14:37:21.354Z,1.40
2023-04-25T14:39:50.567Z,1.40
2023-04-25T14:42:18.411Z,1.20
2023-04-25T14:44:46.503Z,1.60
2023-04-25T14:47:14.427Z,1.40
2023-04-25T14:49:42.371Z,1.50
2023-04-25T14:52:10.380Z,1.23
2023-04-25T14:54:38.301Z,1.20
2023-04-25T14:57:07.478Z,1.43
2023-04-25T14:59:35.527Z,1.30
2023-04-25T15:02:03.437Z,1.17
2023-04-25T15:04:32.211Z,1.43
2023-04-25T15:07:00.269Z,1.30
2023-04-25T15:09:29.621Z,1.43
2023-04-25T15:11:57.818Z,1.60
2023-04-25T15:14:27.168Z,1.27
2023-04-25T15:16:55.243Z,1.40
2023-04-25T15:19:23.261Z,1.47
2023-04-25T15:21:51.182Z,1.27
2023-04-25T15:24:19.458Z,1.30
2023-04-25T15:26:47.445Z,1.50
2023-04-25T15:29:15.459Z,1.47
2023-04-25T15:31:44.688Z,1.30
2023-04-25T15:34:12.848Z,1.40
2023-04-25T15:36:40.709Z,1.30
2023-04-25T15:39:08.565Z,1.30
2023-04-25T15:41:37.538Z,1.50
2023-04-25T15:44:05.447Z,1.40
2023-04-25T15:46:33.400Z,1.83
2023-04-25T15:49:02.745Z,1.80
2023-04-25T15:51:30.744Z,1.43
2023-04-25T15:53:58.638Z,1.40
2023-04-25T15:56:26.507Z,1.60
2023-04-25T15:58:55.398Z,1.30
2023-04-25T16:01:24.654Z,1.63
2023-04-25T16:03:53.246Z,1.50
2023-04-25T16:06:22.818Z,1.30
2023-04-25T16:08:51.490Z,1.63
2023-04-25T16:11:19.683Z,1.20
2023-04-25T16:13:48.010Z,1.40
2023-04-25T16:16:16.253Z,1.60
2023-04-25T16:18:44.162Z,1.37
2023-04-25T16:21:17.068Z,1.57
2023-04-25T16:23:46.592Z,1.30
2023-04-25T16:26:14.497Z,1.40
2023-04-25T16:28:42.433Z,1.70
2023-04-25T16:31:10.496Z,1.30
2023-04-25T16:33:38.375Z,1.27
2023-04-25T16:36:07.189Z,1.33
2023-04-25T16:38:35.065Z,1.63
2023-04-25T16:41:04.484Z,1.40
2023-04-25T16:43:32.758Z,1.43
2023-04-25T16:46:01.411Z,1.50
2023-04-25T16:48:29.306Z,1.67
2023-04-25T16:50:57.250Z,1.60
2023-04-25T16:53:25.520Z,1.40
2023-04-25T16:55:53.468Z,2.10
2023-04-25T16:58:23.270Z,1.50
2023-04-25T17:00:51.549Z,1.40
2023-04-25T17:03:19.688Z,1.27
2023-04-25T17:05:48.113Z,1.20
2023-04-25T17:08:16.030Z,1.50
2023-04-25T17:10:44.140Z,1.80
2023-04-25T17:13:11.967Z,1.57
2023-04-25T17:15:41.422Z,1.40
2023-04-25T17:18:09.529Z,1.53
2023-04-25T17:20:37.518Z,1.40
2023-04-25T17:23:05.580Z,1.63
2023-04-25T17:25:33.699Z,1.60
2023-04-25T17:28:02.010Z,1.50
2023-04-25T17:30:29.957Z,1.50
2023-04-25T17:33:00.568Z,1.73
2023-04-25T17:35:29.440Z,1.70
2023-04-25T17:37:57.482Z,1.63
2023-04-25T17:40:25.991Z,1.37
2023-04-25T17:42:54.007Z,2.40
2023-04-25T17:45:22.142Z,1.73
2023-04-25T17:47:49.996Z,1.77
2023-04-25T17:50:19.498Z,1.70
2023-04-25T17:52:48.353Z,1.80
2023-04-25T17:55:16.375Z,1.97
2023-04-25T17:57:44.227Z,1.50
2023-04-25T18:00:13.081Z,1.60
2023-04-25T18:02:41.309Z,1.50
2023-04-25T18:05:10.748Z,1.80
2023-04-25T18:07:40.044Z,1.67
2023-04-25T18:10:10.228Z,1.70
2023-04-25T18:12:38.253Z,1.80
2023-04-25T18:15:08.157Z,1.67
2023-04-25T18:17:39.949Z,2.10
2023-04-25T18:20:11.882Z,1.53
2023-04-25T18:22:41.515Z,2.00
2023-04-25T18:25:11.213Z,1.80
2023-04-25T18:27:39.273Z,1.43
2023-04-25T18:30:10.666Z,1.80
2023-04-25T18:32:39.778Z,1.87
2023-04-25T18:35:10.056Z,1.47
2023-04-25T18:37:39.642Z,1.60
2023-04-25T18:40:13.786Z,1.60
2023-04-25T18:42:41.873Z,1.63
2023-04-25T18:45:11.561Z,1.70
2023-04-25T18:47:39.417Z,1.70
2023-04-25T18:50:09.077Z,1.50
2023-04-25T18:52:37.094Z,1.37
2023-04-25T18:55:05.338Z,1.80
2023-04-25T18:57:34.541Z,1.70
2023-04-25T19:00:06.676Z,1.70
2023-04-25T19:02:37.916Z,1.50
2023-04-25T19:05:06.681Z,1.73
2023-04-25T19:07:34.553Z,1.60
2023-04-25T19:10:02.376Z,2.00
2023-04-25T19:12:30.348Z,1.60
2023-04-25T19:14:59.532Z,1.93
2023-04-25T19:17:29.040Z,1.90
2023-04-25T19:19:58.189Z,1.80
2023-04-25T19:22:27.321Z,1.50
2023-04-25T19:25:06.731Z,1.77
2023-04-25T19:27:37.582Z,1.60
2023-04-25T19:30:11.314Z,1.97
2023-04-25T19:32:39.794Z,1.47
2023-04-25T19:35:11.342Z,2.93
2023-04-25T19:37:45.722Z,2.00
2023-04-25T19:40:14.851Z,1.93
2023-04-25T19:42:42.752Z,1.90
2023-04-25T19:45:13.107Z,1.60
2023-04-25T19:47:42.400Z,1.53
2023-04-25T19:50:11.846Z,1.60
2023-04-25T19:52:41.344Z,1.50
2023-04-25T19:55:10.850Z,1.87
2023-04-25T19:57:38.793Z,1.60
2023-04-25T20:00:10.786Z,2.13
2023-04-25T20:02:40.697Z,1.80
2023-04-25T20:05:10.168Z,1.70
2023-04-25T20:07:38.331Z,1.70
2023-04-25T20:10:08.101Z,1.80
2023-04-25T20:12:37.628Z,1.57
2023-04-25T20:15:06.737Z,1.63
2023-04-25T20:17:34.656Z,2.20
2023-04-25T20:20:06.277Z,1.60
2023-04-25T20:22:36.840Z,1.73
2023-04-25T20:25:05.684Z,1.67
2023-04-25T20:27:33.937Z,2.10
2023-04-25T20:30:04.754Z,1.60
2023-04-25T20:32:32.987Z,1.87
2023-04-25T20:35:01.625Z,2.20
2023-04-25T20:37:32.406Z,1.70
2023-04-25T20:40:00.604Z,2.07
2023-04-25T20:42:28.621Z,1.70
2023-04-25T20:44:56.854Z,2.00
2023-04-25T20:47:24.803Z,2.03
2023-04-25T20:49:52.980Z,1.90
2023-04-25T20:52:20.852Z,1.90
2023-04-25T20:54:50.642Z,1.70
2023-04-25T20:57:18.615Z,1.60
2023-04-25T20:59:47.799Z,2.17
2023-04-25T21:02:16.791Z,1.67
2023-04-25T21:04:45.565Z,1.70
2023-04-25T21:07:14.225Z,1.60
2023-04-25T21:09:42.647Z,2.40
2023-04-25T21:12:11.990Z,1.77
2023-04-25T21:14:39.855Z,1.50
2023-04-25T21:17:07.788Z,1.50
2023-04-25T21:19:35.691Z,1.87
2023-04-25T21:22:03.703Z,1.83
2023-04-25T21:24:33.208Z,1.57
2023-04-25T21:27:01.229Z,2.40
2023-04-25T21:29:30.460Z,1.90
2023-04-25T21:31:58.339Z,1.47
2023-04-25T21:34:26.913Z,1.93
2023-04-25T21:36:54.771Z,2.00
2023-04-25T21:39:23.474Z,1.97
2023-04-25T21:41:51.399Z,1.70
2023-04-25T21:44:19.306Z,2.03
2023-04-25T21:46:48.551Z,2.07
2023-04-25T21:49:16.539Z,1.93
2023-04-25T21:51:44.494Z,2.03
2023-04-25T21:54:12.322Z,1.67
2023-04-25T21:56:40.179Z,2.30
2023-04-25T21:59:07.998Z,2.30
2023-04-25T22:01:36.694Z,1.73
2023-04-25T22:04:06.710Z,1.73
2023-04-25T22:06:34.677Z,1.80
2023-04-25T22:09:02.971Z,2.67
2023-04-25T22:11:30.851Z,2.10
2023-04-25T22:13:58.687Z,2.20
2023-04-25T22:16:26.777Z,2.10
2023-04-25T22:18:54.860Z,2.30
2023-04-25T22:21:24.456Z,1.60
2023-04-25T22:23:52.844Z,1.97
2023-04-25T22:26:21.008Z,1.97
2023-04-25T22:28:48.854Z,1.80
2023-04-25T22:31:17.233Z,1.73
2023-04-25T22:33:47.244Z,2.00
2023-04-25T22:36:15.117Z,2.10
2023-04-25T22:38:44.305Z,2.13
2023-04-25T22:41:12.685Z,1.90
2023-04-25T22:43:40.821Z,1.97
2023-04-25T22:46:16.881Z,1.70
2023-04-25T22:48:44.875Z,2.30
2023-04-25T22:51:13.715Z,1.90
2023-04-25T22:53:45.273Z,1.70
2023-04-25T22:56:13.688Z,2.00
2023-04-25T22:58:41.566Z,2.00
2023-04-25T23:01:11.202Z,2.30
2023-04-25T23:03:40.192Z,2.43
2023-04-25T23:06:08.357Z,1.80
2023-04-25T23:08:36.290Z,1.60
2023-04-25T23:11:08.637Z,2.27
2023-04-25T23:13:37.203Z,1.87
2023-04-25T23:16:08.984Z,2.03
2023-04-25T23:18:37.321Z,1.90
2023-04-25T23:21:07.536Z,2.30
2023-04-25T23:23:35.427Z,1.80
2023-04-25T23:26:09.797Z,1.67
2023-04-25T23:28:41.424Z,2.17
2023-04-25T23:31:11.860Z,2.20
2023-04-25T23:33:39.822Z,1.60
2023-04-25T23:36:08.406Z,2.23
2023-04-25T23:38:36.263Z,2.03
2023-04-25T23:41:04.107Z,2.20
2023-04-25T23:43:33.360Z,1.80
2023-04-25T23:46:01.301Z,2.00
2023-04-25T23:48:29.174Z,1.63
2023-04-25T23:50:57.165Z,2.10
2023-04-25T23:53:25.019Z,2.07
2023-04-25T23:55:52.870Z,2.20
2023-04-25T23:58:20.727Z,2.10
